Time;durP1;ratioP1;P1;durP2;ratioP2;P2;SDS_P1;SDS_P2;PMS_P1;PMS_P2;Temp;Humidity;BMP_temperature;BMP_pressure;BME280_temperature;BME280_humidity;BME280_pressure;Samples;Min_cycle;Max_cycle;Signal;HPM_P1;HPM_P2
2021/10/07 00:02:01;;;;;;;4.23;3.83;;;;;;;11.91;70.26;102237.25;6230404;28;20328;-46
2021/10/07 00:05:22;;;;;;;4.20;3.80;;;;;;;11.97;70.15;102238.16;6230525;28;20201;-54
2021/10/07 00:08:43;;;;;;;4.40;3.20;;;;;;;11.82;70.56;102238.00;6234862;28;20622;-52
2021/10/07 00:12:06;;;;;;;4.43;3.87;;;;;;;11.98;70.39;102242.53;6236277;28;20232;-49
2021/10/07 00:15:28;;;;;;;3.83;3.50;;;;;;;11.97;69.91;102243.38;6225233;28;20197;-51
2021/10/07 00:18:51;;;;;;;4.00;3.23;;;;;;;11.90;70.21;102249.41;6233819;28;20312;-54
2021/10/07 00:22:12;;;;;;;4.77;4.27;;;;;;;11.78;71.08;102257.97;6234644;28;20609;-51
2021/10/07 00:25:33;;;;;;;5.30;4.50;;;;;;;11.73;71.28;102272.72;6235830;28;20206;-50
2021/10/07 00:29:01;;;;;;;3.83;3.37;;;;;;;12.18;68.80;102271.41;6235348;28;20200;-53
2021/10/07 00:32:24;;;;;;;4.97;3.67;;;;;;;11.90;69.57;102267.69;6236767;28;20583;-49
2021/10/07 00:36:01;;;;;;;3.87;3.50;;;;;;;11.70;70.84;102279.66;6233505;28;20219;-54
2021/10/07 00:39:22;;;;;;;4.77;2.93;;;;;;;11.86;69.71;102281.53;6235535;28;20292;-53
2021/10/07 00:42:42;;;;;;;5.50;3.80;;;;;;;11.73;70.24;102274.44;6234190;28;20232;-50
2021/10/07 00:46:05;;;;;;;4.03;3.63;;;;;;;11.82;69.78;102275.44;6235014;28;20224;-50
2021/10/07 00:49:27;;;;;;;4.60;3.63;;;;;;;11.62;70.65;102285.66;6233307;28;20208;-49
2021/10/07 00:52:48;;;;;;;5.80;3.00;;;;;;;11.48;71.08;102282.06;6235928;28;20605;-51
2021/10/07 00:56:10;;;;;;;4.27;3.80;;;;;;;11.56;70.48;102288.22;6234076;28;20227;-52
2021/10/07 00:59:33;;;;;;;3.60;3.30;;;;;;;11.57;70.49;102283.88;6232317;28;20213;-55
2021/10/07 01:02:56;;;;;;;5.80;3.00;;;;;;;11.49;70.70;102295.97;6235471;28;20228;-52
2021/10/07 01:06:17;;;;;;;4.40;2.87;;;;;;;11.54;70.81;102295.16;6233660;28;20228;-53
2021/10/07 01:09:39;;;;;;;3.87;3.57;;;;;;;11.45;70.96;102300.25;6234707;28;20447;-51
2021/10/07 01:13:00;;;;;;;4.70;3.23;;;;;;;11.40;71.25;102307.19;6233779;28;20221;-53
2021/10/07 01:16:22;;;;;;;4.17;2.83;;;;;;;11.48;70.81;102308.13;6229285;28;20228;-52
2021/10/07 01:19:46;;;;;;;7.10;4.03;;;;;;;11.37;70.89;102305.41;6232744;28;20201;-51
2021/10/07 01:23:06;;;;;;;5.60;3.77;;;;;;;11.44;70.95;102303.75;6238577;28;20336;-49
2021/10/07 01:26:28;;;;;;;3.17;2.87;;;;;;;11.21;71.37;102306.97;6238164;28;20233;-51
2021/10/07 01:29:52;;;;;;;4.90;3.10;;;;;;;11.42;70.63;102308.06;6234774;28;20228;-54
2021/10/07 01:33:13;;;;;;;4.57;2.67;;;;;;;11.36;70.54;102297.53;6234348;28;20224;-51
2021/10/07 01:36:35;;;;;;;4.33;3.27;;;;;;;11.43;69.93;102300.25;6235915;28;20244;-49
2021/10/07 01:39:57;;;;;;;3.87;3.53;;;;;;;11.29;70.41;102298.34;6235266;28;20200;-54
2021/10/07 01:43:18;;;;;;;4.80;2.83;;;;;;;11.16;71.23;102297.31;6239943;28;20240;-52
2021/10/07 01:46:40;;;;;;;4.17;3.20;;;;;;;11.38;70.28;102303.66;6239857;28;20255;-55
2021/10/07 01:50:01;;;;;;;4.30;3.30;;;;;;;11.19;70.23;102297.38;6232793;28;20209;-49
2021/10/07 01:53:23;;;;;;;3.57;2.57;;;;;;;10.96;70.98;102294.47;6232081;28;20505;-53
2021/10/07 01:56:44;;;;;;;3.43;3.13;;;;;;;10.86;71.81;102303.91;6233765;28;20236;-49
2021/10/07 02:00:08;;;;;;;2.70;2.50;;;;;;;11.05;71.08;102307.63;6235737;28;20193;-53
2021/10/07 02:03:32;;;;;;;3.87;3.47;;;;;;;11.16;70.77;102313.84;6234529;28;20668;-52
2021/10/07 02:06:53;;;;;;;3.60;3.30;;;;;;;11.22;70.24;102307.81;6236905;28;20224;-50
2021/10/07 02:10:16;;;;;;;3.03;2.80;;;;;;;10.90;71.03;102317.88;6239070;28;20196;-49
2021/10/07 02:13:38;;;;;;;3.00;2.80;;;;;;;10.83;71.38;102324.69;6236558;28;20627;-52
2021/10/07 02:16:59;;;;;;;4.40;3.03;;;;;;;10.87;71.38;102326.50;6235560;28;21350;-50
2021/10/07 02:20:20;;;;;;;3.73;2.70;;;;;;;10.86;71.12;102336.88;6236780;28;20193;-54
2021/10/07 02:23:40;;;;;;;3.47;2.97;;;;;;;10.74;71.39;102324.56;6237634;28;21653;-50
2021/10/07 02:27:03;;;;;;;4.47;3.30;;;;;;;10.72;71.45;102324.56;6237508;28;20237;-53
2021/10/07 02:30:25;;;;;;;4.37;3.30;;;;;;;10.66;71.51;102326.19;6235907;28;20880;-52
2021/10/07 02:33:47;;;;;;;4.00;3.10;;;;;;;10.93;70.66;102341.34;6234397;28;20303;-52
2021/10/07 02:37:10;;;;;;;3.83;3.43;;;;;;;10.80;71.19;102345.53;6236887;28;20281;-51
2021/10/07 02:40:32;;;;;;;4.80;3.27;;;;;;;11.01;70.55;102353.66;6238732;28;20193;-52
2021/10/07 02:43:54;;;;;;;3.50;3.20;;;;;;;11.02;69.80;102363.19;6236044;28;20224;-50
2021/10/07 02:47:16;;;;;;;3.17;2.97;;;;;;;10.76;70.55;102370.66;6238267;28;20228;-53
2021/10/07 02:50:37;;;;;;;3.30;3.10;;;;;;;10.81;70.30;102365.50;6237442;28;20267;-53
2021/10/07 02:53:58;;;;;;;6.67;3.27;;;;;;;10.79;70.15;102365.47;6237727;28;21593;-52
2021/10/07 02:57:19;;;;;;;3.23;2.97;;;;;;;10.58;70.70;102368.63;6235292;28;20323;-54
2021/10/07 03:00:41;;;;;;;4.23;3.17;;;;;;;10.63;70.84;102379.13;6236131;28;20225;-46
2021/10/07 03:04:02;;;;;;;3.43;2.93;;;;;;;10.67;70.24;102382.66;6235447;28;20237;-53
2021/10/07 03:07:23;;;;;;;4.83;3.53;;;;;;;10.44;71.39;102381.44;6237322;28;20228;-54
2021/10/07 03:10:45;;;;;;;3.30;3.03;;;;;;;10.63;71.08;102389.56;6237354;28;20213;-50
2021/10/07 03:14:06;;;;;;;4.50;3.20;;;;;;;10.82;70.38;102385.50;6239868;28;22200;-49
2021/10/07 03:17:29;;;;;;;4.47;3.53;;;;;;;10.74;70.51;102398.44;6244574;28;20256;-51
2021/10/07 03:20:50;;;;;;;4.63;4.23;;;;;;;10.76;70.40;102396.72;6243068;28;20480;-52
2021/10/07 03:24:11;;;;;;;4.77;4.27;;;;;;;10.59;70.92;102403.41;6243823;28;20225;-50
2021/10/07 03:27:32;;;;;;;7.00;4.97;;;;;;;10.44;73.21;102404.88;6242434;28;20496;-54
2021/10/07 03:30:55;;;;;;;20.67;18.50;;;;;;;10.40;73.55;102410.03;6243853;28;20258;-52
2021/10/07 03:34:17;;;;;;;14.60;13.20;;;;;;;10.57;72.14;102415.53;6243333;28;20567;-53
2021/10/07 03:37:38;;;;;;;11.17;8.90;;;;;;;10.33;73.17;102418.56;6245618;28;20224;-51
2021/10/07 03:41:00;;;;;;;9.47;8.50;;;;;;;10.57;71.90;102418.13;6241603;28;20229;-53
2021/10/07 03:44:21;;;;;;;5.13;4.67;;;;;;;10.74;70.50;102419.28;6241975;28;20205;-49
2021/10/07 03:47:41;;;;;;;5.50;5.00;;;;;;;10.61;71.23;102423.41;6244851;28;20224;-53
2021/10/07 03:51:04;;;;;;;7.10;4.63;;;;;;;10.54;71.48;102431.09;6243547;28;20228;-49
2021/10/07 03:54:25;;;;;;;4.10;3.80;;;;;;;10.63;71.24;102432.13;6240850;28;20197;-50
2021/10/07 03:57:46;;;;;;;3.63;3.17;;;;;;;10.54;71.27;102441.50;6244206;28;20216;-51
2021/10/07 04:01:07;;;;;;;3.70;3.40;;;;;;;10.43;71.95;102450.03;6240862;28;20244;-52
2021/10/07 04:04:28;;;;;;;4.10;3.50;;;;;;;10.72;70.93;102459.16;6238988;28;20208;-53
2021/10/07 04:07:51;;;;;;;19.43;17.60;;;;;;;10.56;70.90;102465.84;6242212;28;20239;-46
2021/10/07 04:11:12;;;;;;;9.20;8.30;;;;;;;10.33;71.64;102468.94;6240460;28;20228;-51
2021/10/07 04:14:33;;;;;;;6.17;4.43;;;;;;;10.21;71.54;102471.28;6240043;28;20916;-52
2021/10/07 04:17:55;;;;;;;7.40;6.70;;;;;;;10.43;71.14;102470.84;6238151;28;20232;-48
2021/10/07 04:21:17;;;;;;;6.73;6.00;;;;;;;10.48;70.70;102483.09;6233577;28;20568;-51
2021/10/07 04:24:39;;;;;;;7.17;5.40;;;;;;;10.25;72.01;102487.00;6237227;28;20240;-49
2021/10/07 04:28:01;;;;;;;5.93;4.77;;;;;;;10.26;72.10;102490.47;6239128;28;20311;-50
2021/10/07 04:31:22;;;;;;;5.60;5.07;;;;;;;10.39;71.33;102495.09;6236065;28;20812;-51
2021/10/07 04:34:43;;;;;;;14.50;13.00;;;;;;;10.21;72.46;102503.38;6239438;28;20188;-51
2021/10/07 04:38:04;;;;;;;15.87;14.17;;;;;;;10.31;71.23;102504.47;6240958;28;20225;-51
2021/10/07 04:41:27;;;;;;;8.17;7.47;;;;;;;10.11;71.55;102516.22;6233182;28;21282;-51
2021/10/07 04:44:48;;;;;;;6.80;6.20;;;;;;;10.14;71.33;102508.44;6240657;28;20208;-49
2021/10/07 04:48:08;;;;;;;7.83;7.03;;;;;;;10.12;71.70;102511.03;6240588;28;20232;-53
2021/10/07 04:51:30;;;;;;;6.77;5.80;;;;;;;10.12;71.70;102511.03;6235851;28;20227;-51
2021/10/07 04:54:51;;;;;;;6.97;6.27;;;;;;;10.02;71.77;102525.59;6240945;28;20212;-50
2021/10/07 04:58:13;;;;;;;7.83;5.67;;;;;;;10.30;71.36;102526.16;6239686;28;20228;-55
2021/10/07 05:01:34;;;;;;;5.13;4.63;;;;;;;10.29;70.86;102529.56;6230221;28;20541;-52
2021/10/07 05:04:55;;;;;;;4.70;4.30;;;;;;;10.35;70.62;102536.66;6237550;28;20220;-53
2021/10/07 05:08:16;;;;;;;6.30;4.63;;;;;;;10.27;70.87;102544.28;6240402;28;20236;-50
2021/10/07 05:11:37;;;;;;;8.17;6.10;;;;;;;10.28;71.27;102547.78;6236452;28;20225;-51
2021/10/07 05:15:00;;;;;;;5.10;4.60;;;;;;;10.48;70.38;102556.00;6233446;28;20209;-51
2021/10/07 05:18:21;;;;;;;5.67;5.00;;;;;;;10.44;70.10;102566.38;6234132;28;20221;-53
2021/10/07 05:21:42;;;;;;;13.00;10.57;;;;;;;10.01;72.08;102565.47;6232755;28;21418;-54
2021/10/07 05:25:04;;;;;;;9.17;6.37;;;;;;;10.21;71.86;102571.06;6234339;28;20351;-51
2021/10/07 05:28:25;;;;;;;5.37;4.87;;;;;;;10.25;70.88;102577.22;6238305;28;20264;-51
2021/10/07 05:31:48;;;;;;;11.77;6.20;;;;;;;10.17;70.70;102581.41;6240819;28;20253;-53
2021/10/07 05:35:09;;;;;;;11.07;9.97;;;;;;;9.91;74.04;102584.34;6240362;28;20193;-51
2021/10/07 05:38:30;;;;;;;8.83;7.50;;;;;;;10.22;72.73;102590.22;6235029;28;20243;-49
2021/10/07 05:41:51;;;;;;;9.73;7.17;;;;;;;10.13;73.34;102590.00;6237894;28;20224;-50
2021/10/07 05:45:12;;;;;;;13.70;12.30;;;;;;;10.21;72.61;102599.72;6238622;28;20598;-52
2021/10/07 05:48:36;;;;;;;15.73;14.30;;;;;;;10.40;71.85;102603.63;6230548;28;20220;-53
2021/10/07 05:51:57;;;;;;;8.03;7.30;;;;;;;10.26;71.80;102602.44;6237811;28;20229;-54
2021/10/07 05:55:19;;;;;;;5.83;4.90;;;;;;;10.50;71.20;102598.59;6239961;28;20209;-50
2021/10/07 05:58:40;;;;;;;5.70;5.03;;;;;;;10.56;70.63;102606.53;6241494;28;20825;-47
2021/10/07 06:02:01;;;;;;;5.87;5.00;;;;;;;10.27;71.91;102604.19;6236462;28;20228;-53
2021/10/07 06:05:23;;;;;;;6.80;5.67;;;;;;;10.38;71.54;102613.13;6240565;28;20311;-53
2021/10/07 06:08:44;;;;;;;6.77;5.17;;;;;;;10.37;71.62;102624.41;6223222;28;20216;-52
2021/10/07 06:12:06;;;;;;;10.93;5.63;;;;;;;10.35;71.63;102623.50;6231750;28;20625;-50
2021/10/07 06:15:27;;;;;;;5.40;4.40;;;;;;;10.46;71.39;102630.66;6242418;28;20200;-52
2021/10/07 06:18:50;;;;;;;5.27;4.77;;;;;;;10.67;71.04;102636.28;6233089;28;20260;-51
2021/10/07 06:22:12;;;;;;;6.43;5.03;;;;;;;10.59;70.81;102643.94;6224065;28;20252;-47
2021/10/07 06:25:35;;;;;;;5.63;4.50;;;;;;;10.27;72.27;102651.03;6226754;28;20209;-51
2021/10/07 06:28:55;;;;;;;6.70;4.90;;;;;;;10.47;72.38;102646.31;6229666;28;20209;-48
2021/10/07 06:32:17;;;;;;;8.70;5.50;;;;;;;10.68;71.02;102658.88;6234736;28;20339;-54
2021/10/07 06:35:38;;;;;;;8.93;5.70;;;;;;;10.76;70.77;102662.53;6231405;28;22778;-49
2021/10/07 06:39:01;;;;;;;7.10;4.60;;;;;;;10.76;70.66;102670.34;6232452;28;20186;-53
2021/10/07 06:42:22;;;;;;;6.13;5.53;;;;;;;10.82;70.67;102673.06;6228507;28;20289;-48
2021/10/07 06:45:43;;;;;;;6.37;5.33;;;;;;;10.83;71.12;102668.72;6233380;28;20228;-52
2021/10/07 06:49:04;;;;;;;8.73;4.70;;;;;;;11.07;70.56;102672.63;6237612;28;20205;-54
2021/10/07 06:52:25;;;;;;;8.90;5.70;;;;;;;11.16;70.32;102678.91;6227598;28;20236;-50
2021/10/07 06:55:48;;;;;;;5.03;4.53;;;;;;;11.18;69.77;102682.41;6235941;28;20288;-49
2021/10/07 06:59:09;;;;;;;6.13;5.53;;;;;;;11.06;70.56;102684.81;6236339;28;20279;-50
2021/10/07 07:02:30;;;;;;;7.67;4.93;;;;;;;11.19;70.01;102694.63;6221646;28;20618;-51
2021/10/07 07:05:51;;;;;;;8.30;5.07;;;;;;;11.27;70.41;102693.88;6236198;28;20224;-50
2021/10/07 07:09:12;;;;;;;5.83;5.33;;;;;;;11.36;70.27;102696.63;6235264;28;20216;-49
2021/10/07 07:12:35;;;;;;;6.13;5.37;;;;;;;11.22;70.62;102707.72;6235023;28;20220;-49
2021/10/07 07:15:56;;;;;;;7.03;4.93;;;;;;;11.14;70.63;102705.81;6238126;28;20498;-49
2021/10/07 07:19:17;;;;;;;6.63;6.03;;;;;;;11.09;71.16;102712.66;6239554;28;20201;-51
2021/10/07 07:22:40;;;;;;;5.93;4.97;;;;;;;11.11;71.09;102714.47;6230458;28;20763;-47
2021/10/07 07:26:01;;;;;;;5.37;4.87;;;;;;;11.38;70.00;102715.78;6234520;28;20229;-49
2021/10/07 07:29:24;;;;;;;7.70;5.87;;;;;;;11.46;70.01;102722.06;6239728;28;20197;-51
2021/10/07 07:32:45;;;;;;;5.03;4.63;;;;;;;11.45;70.12;102720.28;6241968;28;20224;-49
2021/10/07 07:36:06;;;;;;;7.17;6.23;;;;;;;11.53;69.65;102729.13;6241555;28;20232;-51
2021/10/07 07:39:28;;;;;;;5.23;4.73;;;;;;;11.80;68.82;102730.44;6242160;28;20189;-50
2021/10/07 07:42:49;;;;;;;17.70;7.97;;;;;;;11.83;68.68;102740.94;6241609;28;20236;-47
2021/10/07 07:46:12;;;;;;;53.20;13.57;;;;;;;12.15;68.13;102743.22;6241388;28;21060;-51
2021/10/07 07:49:33;;;;;;;14.10;7.23;;;;;;;12.30;67.55;102740.81;6239672;28;20583;-53
2021/10/07 07:52:55;;;;;;;6.67;5.63;;;;;;;12.19;67.59;102745.91;6240594;28;20315;-49
2021/10/07 07:56:18;;;;;;;5.77;5.17;;;;;;;12.71;66.92;102737.88;6237297;28;20229;-49
2021/10/07 07:59:39;;;;;;;8.37;5.40;;;;;;;12.86;66.63;102733.72;6246433;28;20205;-52
2021/10/07 08:03:02;;;;;;;7.30;5.77;;;;;;;12.83;66.08;102745.00;6237423;28;20225;-51
2021/10/07 08:06:23;;;;;;;7.63;5.77;;;;;;;12.79;66.50;102736.28;6235509;28;20635;-48
2021/10/07 08:09:45;;;;;;;7.57;6.17;;;;;;;12.91;66.06;102742.47;6235910;28;20216;-47
2021/10/07 08:13:06;;;;;;;12.03;10.63;;;;;;;13.01;66.08;102746.97;6236289;28;20331;-55
2021/10/07 08:16:29;;;;;;;10.13;6.17;;;;;;;13.11;66.04;102745.34;6241887;28;20216;-52
2021/10/07 08:19:51;;;;;;;10.00;6.37;;;;;;;12.76;67.21;102749.28;6243145;28;20193;-51
2021/10/07 08:23:13;;;;;;;5.60;4.83;;;;;;;13.16;65.61;102748.88;6240960;28;20232;-52
2021/10/07 08:26:35;;;;;;;11.03;5.13;;;;;;;12.98;66.68;102739.94;6235169;28;20689;-49
2021/10/07 08:29:57;;;;;;;5.80;4.80;;;;;;;13.34;65.13;102748.25;6238155;28;20205;-50
2021/10/07 08:33:18;;;;;;;7.87;5.33;;;;;;;13.40;65.85;102748.31;6235367;28;20228;-52
2021/10/07 08:36:43;;;;;;;6.60;4.67;;;;;;;13.89;64.60;102764.44;6238376;28;20236;-52
2021/10/07 08:40:07;;;;;;;5.40;4.90;;;;;;;13.88;63.80;102757.47;6238024;28;20201;-51
2021/10/07 08:43:28;;;;;;;5.43;4.93;;;;;;;14.19;63.57;102760.31;6239551;28;20228;-53
2021/10/07 08:46:53;;;;;;;6.90;4.63;;;;;;;14.23;63.21;102751.59;6237230;28;20232;-51
2021/10/07 08:50:17;;;;;;;10.50;5.93;;;;;;;14.50;63.81;102752.59;6243364;28;20188;-47
2021/10/07 08:53:39;;;;;;;9.83;5.53;;;;;;;14.77;62.37;102758.03;6240613;28;20223;-51
2021/10/07 08:57:01;;;;;;;7.97;4.37;;;;;;;15.16;61.54;102755.56;6241410;28;20493;-48
2021/10/07 09:00:22;;;;;;;9.40;5.47;;;;;;;15.26;61.27;102753.84;6239377;28;20200;-50
2021/10/07 09:03:43;;;;;;;8.03;4.87;;;;;;;15.15;60.31;102752.03;6234330;28;20528;-50
2021/10/07 09:07:07;;;;;;;7.13;5.20;;;;;;;15.25;60.94;102757.31;6239464;28;20236;-51
2021/10/07 09:10:38;;;;;;;7.13;4.37;;;;;;;15.71;59.78;102749.50;6242355;28;20193;-51
2021/10/07 09:14:01;;;;;;;4.77;3.50;;;;;;;15.94;59.79;102752.16;6234409;28;20225;-51
2021/10/07 09:17:23;;;;;;;6.53;3.30;;;;;;;15.77;58.93;102759.16;6242343;28;20515;-49
2021/10/07 09:20:46;;;;;;;6.47;3.40;;;;;;;15.99;58.48;102755.63;6240901;28;20196;-54
2021/10/07 09:24:29;;;;;;;6.07;3.40;;;;;;;16.65;57.53;102760.78;6244798;28;20243;-51
2021/10/07 09:28:03;;;;;;;6.63;4.00;;;;;;;16.58;56.32;102761.66;6247289;28;20228;-51
2021/10/07 09:31:26;;;;;;;3.67;3.30;;;;;;;17.00;56.06;102762.41;6244732;28;20232;-52
2021/10/07 09:34:49;;;;;;;3.63;3.23;;;;;;;17.16;54.17;102765.84;6245699;28;20197;-52
2021/10/07 09:38:21;;;;;;;3.70;3.40;;;;;;;17.18;54.54;102769.34;6249775;28;20228;-53
2021/10/07 09:41:42;;;;;;;5.43;3.80;;;;;;;17.08;53.81;102768.50;6245784;28;20653;-53
2021/10/07 09:45:12;;;;;;;5.37;3.87;;;;;;;17.44;53.46;102765.66;6241809;28;20610;-50
2021/10/07 09:48:38;;;;;;;5.83;3.67;;;;;;;18.26;51.52;102769.38;6243272;28;20216;-50
2021/10/07 09:52:01;;;;;;;6.37;3.73;;;;;;;22.54;41.01;102766.53;6242854;28;20217;-52
2021/10/07 09:55:25;;;;;;;3.47;2.42;;;;;;;22.98;39.24;102761.72;6250033;28;20197;-52
2021/10/07 09:58:46;;;;;;;2.00;1.80;;;;;;;25.66;33.88;102761.91;6242614;28;20220;-49
2021/10/07 10:02:09;;;;;;;4.72;3.33;;;;;;;25.38;34.73;102767.50;6239113;28;20249;-51
2021/10/07 10:05:32;;;;;;;3.55;2.35;;;;;;;25.21;33.42;102762.84;6243254;28;20275;-52
2021/10/07 10:08:53;;;;;;;5.10;2.33;;;;;;;27.59;30.32;102756.66;6245106;28;20221;-51
2021/10/07 10:12:14;;;;;;;4.90;2.60;;;;;;;27.61;29.98;102754.75;6244468;28;20650;-54
2021/10/07 10:15:37;;;;;;;2.78;2.58;;;;;;;31.24;26.27;102756.97;6242517;28;20224;-54
2021/10/07 10:19:02;;;;;;;3.05;2.83;;;;;;;30.47;25.73;102756.53;6243822;28;20186;-53
2021/10/07 10:22:25;;;;;;;6.05;4.60;;;;;;;31.48;24.96;102757.16;6241662;28;20237;-53
2021/10/07 10:25:55;;;;;;;2.83;2.20;;;;;;;27.46;29.07;102761.75;6240507;28;20193;-53
2021/10/07 10:29:20;;;;;;;4.00;2.45;;;;;;;27.19;29.25;102759.47;6243738;28;20213;-53
2021/10/07 10:32:41;;;;;;;3.42;2.20;;;;;;;29.99;25.32;102764.81;6242862;28;20610;-52
2021/10/07 10:36:31;;;;;;;3.17;2.97;;;;;;;31.31;24.67;102756.47;6243351;28;20233;-54
2021/10/07 10:39:52;;;;;;;3.72;2.90;;;;;;;31.06;24.03;102748.28;6243333;28;20284;-51
2021/10/07 10:43:40;;;;;;;3.22;3.03;;;;;;;32.94;22.01;102758.53;6240568;28;20233;-54
2021/10/07 10:47:14;;;;;;;2.65;1.95;;;;;;;32.06;23.38;102761.25;6240258;28;20228;-54
2021/10/07 10:50:35;;;;;;;2.47;2.22;;;;;;;30.29;24.00;102772.84;6243822;28;20212;-52
2021/10/07 10:54:00;;;;;;;2.78;1.85;;;;;;;32.91;21.92;102769.53;6237625;28;20618;-55
2021/10/07 10:57:36;;;;;;;3.60;2.15;;;;;;;30.35;24.32;102777.84;6234262;28;20232;-54
2021/10/07 11:01:14;;;;;;;3.63;2.20;;;;;;;30.75;23.42;102775.34;6235389;28;20228;-52
2021/10/07 11:04:46;;;;;;;2.53;1.88;;;;;;;29.13;25.50;102776.13;6234199;28;20231;-52
2021/10/07 11:08:19;;;;;;;2.83;2.10;;;;;;;31.62;22.60;102770.56;6234231;28;22073;-54
2021/10/07 11:11:46;;;;;;;5.10;4.63;;;;;;;31.26;23.13;102771.19;6241388;28;20240;-54
2021/10/07 11:15:08;;;;;;;3.28;2.20;;;;;;;29.78;24.85;102775.06;6239609;28;20230;-53
2021/10/07 11:18:33;;;;;;;2.17;1.92;;;;;;;29.10;26.05;102780.75;6240330;28;20228;-53
2021/10/07 11:22:07;;;;;;;2.20;1.50;;;;;;;30.84;23.65;102779.22;6232055;28;20237;-49
2021/10/07 11:25:29;;;;;;;4.05;2.70;;;;;;;32.30;21.38;102788.31;6222662;28;22004;-52
2021/10/07 11:28:52;;;;;;;2.05;1.70;;;;;;;30.44;23.43;102779.13;6231773;28;20252;-52
2021/10/07 11:32:14;;;;;;;1.70;1.60;;;;;;;27.55;27.53;102790.72;6238786;28;20395;-51
2021/10/07 11:35:36;;;;;;;2.65;1.90;;;;;;;27.22;27.90;102782.50;6237659;28;20217;-52
2021/10/07 11:38:59;;;;;;;3.05;1.40;;;;;;;26.05;30.31;102779.84;6234100;28;20292;-50
2021/10/07 11:42:38;;;;;;;2.38;1.63;;;;;;;28.43;26.44;102786.22;6238419;28;20232;-53
2021/10/07 11:46:02;;;;;;;3.70;3.03;;;;;;;28.16;26.96;102788.53;6239683;28;20233;-52
2021/10/07 11:49:28;;;;;;;2.47;2.10;;;;;;;29.63;24.61;102776.81;6239424;28;20287;-52
2021/10/07 11:52:52;;;;;;;3.10;1.65;;;;;;;29.45;25.09;102786.81;6225964;28;21194;-53
2021/10/07 11:56:15;;;;;;;3.28;2.63;;;;;;;30.03;24.58;102787.84;6237291;28;20714;-55
2021/10/07 11:59:42;;;;;;;4.70;1.92;;;;;;;28.39;27.25;102785.50;6236209;28;20212;-51
2021/10/07 12:03:10;;;;;;;2.30;1.70;;;;;;;29.99;24.36;102776.47;6234419;28;20229;-50
2021/10/07 12:06:33;;;;;;;1.45;1.25;;;;;;;32.05;21.89;102789.19;6234927;28;20223;-50
2021/10/07 12:09:53;;;;;;;1.75;1.65;;;;;;;32.50;21.10;102781.50;6211309;28;20209;-54
2021/10/07 12:13:18;;;;;;;1.98;1.67;;;;;;;32.61;21.03;102788.84;6203319;28;20565;-51
2021/10/07 12:16:42;;;;;;;1.67;1.50;;;;;;;30.34;23.16;102792.25;6235068;28;20229;-51
2021/10/07 12:20:05;;;;;;;3.70;1.92;;;;;;;29.23;25.05;102788.03;6235037;28;20216;-54
2021/10/07 12:23:27;;;;;;;3.90;2.70;;;;;;;25.67;30.76;102796.53;6232067;28;20225;-56
2021/10/07 12:26:51;;;;;;;3.35;2.47;;;;;;;28.50;26.84;102797.44;6226701;28;20228;-51
2021/10/07 12:30:14;;;;;;;1.63;1.52;;;;;;;29.61;24.91;102792.16;6229236;28;20205;-51
2021/10/07 12:33:36;;;;;;;3.10;2.25;;;;;;;30.78;24.11;102796.63;6235838;28;20860;-51
2021/10/07 12:36:59;;;;;;;2.35;1.80;;;;;;;31.85;21.75;102793.19;6226618;28;20236;-48
2021/10/07 12:40:27;;;;;;;3.22;2.40;;;;;;;28.24;26.30;102802.38;6227765;28;20200;-48
2021/10/07 12:43:55;;;;;;;2.15;1.77;;;;;;;26.85;28.03;102808.31;6231876;28;20231;-50
2021/10/07 12:47:19;;;;;;;2.30;1.85;;;;;;;25.48;31.47;102806.22;6231867;28;20263;-48
2021/10/07 12:50:39;;;;;;;4.32;3.83;;;;;;;26.87;29.23;102801.97;6231442;28;20553;-51
2021/10/07 12:54:11;;;;;;;1.73;1.63;;;;;;;24.90;32.39;102802.22;6230860;28;20200;-53
2021/10/07 12:57:40;;;;;;;3.30;1.98;;;;;;;25.64;31.69;102799.31;6230791;28;21844;-51
2021/10/07 13:01:21;;;;;;;2.83;2.33;;;;;;;24.07;33.55;102804.34;6232627;28;20260;-49
2021/10/07 13:04:45;;;;;;;4.70;2.03;;;;;;;22.87;36.18;102806.31;6240755;28;20241;-47
2021/10/07 13:08:08;;;;;;;2.65;1.88;;;;;;;24.88;33.13;102797.91;6227324;28;20228;-46
2021/10/07 13:11:31;;;;;;;1.60;1.33;;;;;;;23.44;35.00;102801.06;6235108;28;20231;-49
2021/10/07 13:14:55;;;;;;;1.98;1.23;;;;;;;22.86;36.70;102803.72;6233130;28;20581;-51
2021/10/07 13:18:16;;;;;;;2.25;1.73;;;;;;;25.30;30.97;102803.38;6228127;28;20781;-48
2021/10/07 13:21:37;;;;;;;1.98;1.70;;;;;;;25.51;30.95;102806.09;6232988;28;20228;-50
2021/10/07 13:24:59;;;;;;;2.22;1.40;;;;;;;28.83;26.64;102795.66;6241898;28;20307;-54
2021/10/07 13:28:21;;;;;;;1.65;1.55;;;;;;;29.24;26.14;102805.03;6233909;28;20602;-52
2021/10/07 13:31:42;;;;;;;5.65;5.13;;;;;;;28.72;26.63;102808.78;6230806;28;20240;-50
2021/10/07 13:35:04;;;;;;;3.38;3.08;;;;;;;27.84;27.85;102815.13;6238305;28;20189;-52
2021/10/07 13:38:26;;;;;;;3.55;1.88;;;;;;;26.49;29.48;102819.75;6232876;28;20314;-47
2021/10/07 13:41:47;;;;;;;2.50;2.10;;;;;;;26.08;30.42;102811.75;6235933;28;20606;-53
2021/10/07 13:45:10;;;;;;;3.58;2.33;;;;;;;26.39;30.67;102819.28;6243026;28;20559;-51
2021/10/07 13:48:31;;;;;;;4.57;2.40;;;;;;;26.69;30.07;102814.38;6235520;28;20705;-53
2021/10/07 13:51:52;;;;;;;5.07;1.40;;;;;;;25.98;30.86;102823.75;6235418;28;20512;-51
2021/10/07 13:55:13;;;;;;;1.80;1.30;;;;;;;25.46;31.90;102816.09;6237426;28;20197;-53
2021/10/07 13:58:34;;;;;;;2.58;1.48;;;;;;;25.56;31.54;102820.13;6209346;28;20221;-52
2021/10/07 14:01:58;;;;;;;1.77;1.65;;;;;;;25.44;32.32;102810.81;6233142;28;20677;-53
2021/10/07 14:05:24;;;;;;;4.00;1.73;;;;;;;25.27;32.25;102816.81;6236373;28;20196;-48
2021/10/07 14:08:45;;;;;;;5.18;2.55;;;;;;;24.86;33.02;102819.25;6235239;28;20217;-48
2021/10/07 14:12:07;;;;;;;2.47;2.15;;;;;;;25.20;32.61;102811.75;6227791;28;21098;-48
2021/10/07 14:15:29;;;;;;;2.35;1.40;;;;;;;25.61;31.45;102815.47;6241036;28;20292;-50
2021/10/07 14:18:51;;;;;;;2.00;1.20;;;;;;;25.24;32.29;102822.28;6238984;28;20217;-53
2021/10/07 14:22:13;;;;;;;2.28;1.80;;;;;;;26.16;30.55;102822.09;6238066;28;20256;-52
2021/10/07 14:25:34;;;;;;;2.17;1.20;;;;;;;26.91;29.75;102824.09;6236340;28;20189;-54
2021/10/07 14:28:55;;;;;;;3.35;1.88;;;;;;;24.53;33.17;102824.91;6236735;28;20224;-51
2021/10/07 14:32:17;;;;;;;4.20;2.47;;;;;;;25.02;33.20;102829.34;6234759;28;20535;-50
2021/10/07 14:35:39;;;;;;;2.88;1.67;;;;;;;25.55;31.71;102829.03;6240944;28;20212;-48
2021/10/07 14:39:00;;;;;;;2.97;1.25;;;;;;;23.74;34.88;102833.78;6243791;28;20243;-51
2021/10/07 14:42:21;;;;;;;1.85;1.20;;;;;;;24.83;33.37;102832.69;6238530;28;20323;-49
2021/10/07 14:45:42;;;;;;;1.58;1.48;;;;;;;24.07;35.07;102839.81;6236697;28;20190;-51
2021/10/07 14:49:03;;;;;;;3.55;2.70;;;;;;;23.91;34.86;102839.47;6241545;28;20209;-54
2021/10/07 14:52:25;;;;;;;3.38;1.92;;;;;;;23.38;35.23;102847.38;6238956;28;20228;-54
2021/10/07 14:55:47;;;;;;;2.80;1.10;;;;;;;23.18;35.54;102845.28;6239515;28;20201;-51
2021/10/07 14:59:08;;;;;;;1.67;1.20;;;;;;;22.79;36.73;102846.38;6241782;28;20213;-53
2021/10/07 15:02:30;;;;;;;2.13;1.42;;;;;;;22.88;36.84;102837.28;6241158;28;20248;-48
2021/10/07 15:05:51;;;;;;;3.03;1.88;;;;;;;22.96;37.06;102835.28;6233246;28;20517;-51
2021/10/07 15:09:13;;;;;;;2.13;1.73;;;;;;;22.79;37.37;102845.50;6235112;28;20217;-49
2021/10/07 15:12:35;;;;;;;2.45;1.88;;;;;;;22.48;37.30;102846.38;6230915;28;20437;-49
2021/10/07 15:15:56;;;;;;;1.70;1.23;;;;;;;22.16;36.92;102848.06;6239842;28;20615;-51
2021/10/07 15:19:17;;;;;;;2.63;1.77;;;;;;;22.12;37.25;102838.44;6240249;28;20562;-53
2021/10/07 15:22:38;;;;;;;3.28;1.95;;;;;;;21.86;38.24;102843.53;6230460;28;20698;-51
2021/10/07 15:26:00;;;;;;;3.15;2.05;;;;;;;21.53;39.41;102848.72;6232467;28;20229;-50
2021/10/07 15:29:21;;;;;;;2.28;1.75;;;;;;;21.51;39.90;102845.22;6235151;28;20209;-51
2021/10/07 15:32:43;;;;;;;2.65;2.00;;;;;;;21.30;40.02;102841.25;6235549;28;20617;-49
2021/10/07 15:36:04;;;;;;;2.70;1.83;;;;;;;20.90;40.55;102848.28;6236622;28;20347;-53
2021/10/07 15:39:26;;;;;;;5.43;2.58;;;;;;;20.78;41.22;102848.50;6236795;28;20208;-54
2021/10/07 15:42:48;;;;;;;2.90;1.55;;;;;;;20.64;40.40;102849.63;6232489;28;20232;-53